Time;durP1;ratioP1;P1;durP2;ratioP2;P2;SDS_P1;SDS_P2;PMS_P1;PMS_P2;Temp;Humidity;BMP_temperature;BMP_pressure;BME280_temperature;BME280_humidity;BME280_pressure;Samples;Min_cycle;Max_cycle;Signal;HPM_P1;HPM_P2
2021/04/25 00:00:08;;;;;;;20.58;10.27;;;;;;;6.78;90.65;96173.66;1023228;29;20019;-50
2021/04/25 00:00:39;;;;;;;14.98;9.93;;;;;;;6.81;90.98;96170.91;1023467;28;20027;-50
2021/04/25 00:01:10;;;;;;;15.27;9.35;;;;;;;6.86;91.84;96168.03;1031645;28;20241;-49
2021/04/25 00:01:41;;;;;;;17.75;9.82;;;;;;;6.84;91.61;96166.44;1031424;28;20014;-49
2021/04/25 00:02:12;;;;;;;16.15;9.38;;;;;;;6.84;92.12;96164.69;1031507;28;20113;-50
2021/04/25 00:02:42;;;;;;;15.77;9.68;;;;;;;6.82;91.91;96169.13;1027554;28;20092;-49
2021/04/25 00:03:13;;;;;;;18.90;9.35;;;;;;;6.82;91.19;96169.97;1027366;28;20557;-51
2021/04/25 00:03:44;;;;;;;15.15;9.55;;;;;;;6.81;90.52;96172.66;1031398;28;20018;-50
2021/04/25 00:04:15;;;;;;;14.80;9.55;;;;;;;6.77;89.45;96165.91;1031507;28;20018;-48
2021/04/25 00:04:46;;;;;;;15.40;9.80;;;;;;;6.76;89.48;96170.28;1023552;28;20535;-49
2021/04/25 00:05:18;;;;;;;15.50;8.75;;;;;;;6.77;88.72;96163.31;1035512;28;20301;-49
2021/04/25 00:05:49;;;;;;;14.15;8.45;;;;;;;6.77;88.66;96171.97;1027357;28;20090;-49
2021/04/25 00:06:19;;;;;;;19.13;9.10;;;;;;;6.76;88.31;96170.28;1023417;28;20316;-51
2021/04/25 00:06:50;;;;;;;14.68;8.43;;;;;;;6.78;88.04;96172.81;1023535;28;20157;-50
2021/04/25 00:07:21;;;;;;;13.50;7.82;;;;;;;6.89;85.87;96167.03;1023460;29;20027;-48
2021/04/25 00:07:52;;;;;;;16.10;8.60;;;;;;;6.89;86.08;96165.28;1023376;28;20260;-49
2021/04/25 00:08:23;;;;;;;17.23;8.68;;;;;;;6.87;85.99;96172.34;1027294;28;20118;-50
2021/04/25 00:08:53;;;;;;;14.13;8.55;;;;;;;6.84;86.32;96167.28;1023530;29;20454;-52
2021/04/25 00:09:24;;;;;;;14.18;8.85;;;;;;;6.85;86.35;96170.72;1023590;29;20082;-49
2021/04/25 00:09:55;;;;;;;14.27;8.20;;;;;;;6.82;86.24;96167.34;1023469;28;20023;-49
2021/04/25 00:10:25;;;;;;;15.40;8.70;;;;;;;6.81;86.60;96172.66;1023472;28;20027;-51
2021/04/25 00:10:57;;;;;;;14.23;8.13;;;;;;;6.81;85.80;96173.50;1023487;29;20489;-49
2021/04/25 00:11:27;;;;;;;15.80;8.30;;;;;;;6.88;85.23;96167.97;1033882;28;20030;-49
2021/04/25 00:11:58;;;;;;;16.58;8.23;;;;;;;6.90;85.00;96169.56;1023377;29;20267;-49
2021/04/25 00:12:29;;;;;;;18.52;8.82;;;;;;;6.88;85.89;96165.38;1027445;28;20015;-49
2021/04/25 00:13:00;;;;;;;21.25;9.25;;;;;;;6.86;85.85;96165.44;1031415;28;20526;-50
2021/04/25 00:13:31;;;;;;;16.80;8.70;;;;;;;6.88;85.29;96162.75;1031339;28;20265;-50
2021/04/25 00:14:03;;;;;;;12.10;8.18;;;;;;;6.88;85.80;96167.97;1031271;28;20032;-51
2021/04/25 00:14:33;;;;;;;14.77;8.45;;;;;;;6.82;85.39;96162.16;1031429;28;20018;-47
2021/04/25 00:15:05;;;;;;;11.25;7.45;;;;;;;6.87;85.12;96167.13;1023467;28;20745;-50
2021/04/25 00:15:35;;;;;;;18.85;7.68;;;;;;;6.86;85.66;96159.41;1031501;28;20599;-51
2021/04/25 00:16:07;;;;;;;13.50;8.32;;;;;;;6.85;86.13;96163.78;1031526;28;20258;-51
2021/04/25 00:16:37;;;;;;;13.45;7.60;;;;;;;6.85;85.41;96161.16;1032203;28;20121;-50
2021/04/25 00:17:08;;;;;;;19.27;9.45;;;;;;;6.87;85.32;96161.94;1032256;28;20268;-50
2021/04/25 00:17:39;;;;;;;13.38;8.48;;;;;;;6.87;85.59;96161.06;1028184;28;20029;-50
2021/04/25 00:18:10;;;;;;;15.45;8.55;;;;;;;6.90;84.68;96160.91;1028114;28;20027;-50
2021/04/25 00:18:41;;;;;;;16.05;8.00;;;;;;;6.89;84.86;96164.44;1028142;28;20105;-48
2021/04/25 00:19:12;;;;;;;14.38;8.90;;;;;;;6.90;84.66;96156.53;1024239;29;20114;-51
2021/04/25 00:19:43;;;;;;;13.18;6.95;;;;;;;6.98;83.88;96167.41;1028205;28;20274;-49
2021/04/25 00:20:15;;;;;;;14.68;7.88;;;;;;;6.95;83.93;96162.34;1024087;28;20606;-51
2021/04/25 00:20:46;;;;;;;12.05;7.53;;;;;;;6.99;83.44;96153.44;1024144;29;20101;-51
2021/04/25 00:21:21;;;;;;;16.75;7.95;;;;;;;7.01;83.66;96158.59;1024188;28;20340;-50
2021/04/25 00:21:52;;;;;;;13.52;7.60;;;;;;;7.04;83.01;96154.97;1028223;28;20053;-50
2021/04/25 00:22:23;;;;;;;15.65;7.60;;;;;;;7.04;82.45;96150.63;1032059;28;20277;-49
2021/04/25 00:22:54;;;;;;;12.90;8.10;;;;;;;7.10;82.52;96158.09;1024164;28;20487;-50
2021/04/25 00:23:25;;;;;;;14.32;8.23;;;;;;;7.13;81.93;96155.34;1028109;28;20266;-49
2021/04/25 00:23:55;;;;;;;12.35;7.72;;;;;;;7.16;81.70;96157.75;1027985;28;20054;-49
2021/04/25 00:24:26;;;;;;;13.35;7.60;;;;;;;7.15;81.45;96157.84;1028056;28;20022;-50
2021/04/25 00:24:57;;;;;;;11.55;7.40;;;;;;;7.13;81.35;96154.47;1028190;28;20054;-50
2021/04/25 00:25:28;;;;;;;14.30;7.43;;;;;;;7.15;81.37;96160.44;1028169;28;20526;-49
2021/04/25 00:25:59;;;;;;;12.20;7.90;;;;;;;7.16;81.06;96155.16;1024219;28;20392;-49
2021/04/25 00:26:30;;;;;;;13.30;6.82;;;;;;;7.17;80.72;96154.25;1032136;28;20134;-52
2021/04/25 00:27:01;;;;;;;15.23;7.45;;;;;;;7.22;80.85;96150.56;1032247;28;20367;-53
2021/04/25 00:27:32;;;;;;;13.52;7.78;;;;;;;7.22;80.53;96147.94;1032196;28;20041;-51
2021/04/25 00:28:04;;;;;;;11.40;7.32;;;;;;;7.19;80.54;96152.41;1028125;28;20285;-49
2021/04/25 00:28:35;;;;;;;10.05;6.93;;;;;;;7.17;80.53;96153.38;1031948;28;20400;-50
2021/04/25 00:29:06;;;;;;;14.48;7.95;;;;;;;7.19;80.34;96159.38;1036229;28;20265;-50
2021/04/25 00:29:36;;;;;;;11.13;7.55;;;;;;;7.15;80.70;96153.50;1024171;29;20254;-56
2021/04/25 00:30:09;;;;;;;11.98;6.65;;;;;;;7.17;80.98;96156.00;1028237;28;20512;-49
2021/04/25 00:30:40;;;;;;;11.02;7.53;;;;;;;7.16;80.59;96155.16;1028132;28;20031;-50
2021/04/25 00:31:11;;;;;;;11.63;7.78;;;;;;;7.15;81.45;96153.50;1032195;28;20332;-50
2021/04/25 00:31:42;;;;;;;11.35;7.05;;;;;;;7.15;81.35;96148.28;1028123;28;20030;-50
2021/04/25 00:32:13;;;;;;;18.25;8.93;;;;;;;7.14;81.49;96153.56;1032162;28;20269;-51
2021/04/25 00:32:44;;;;;;;15.20;7.90;;;;;;;7.11;81.86;96151.13;1028134;28;20033;-49
2021/04/25 00:33:15;;;;;;;12.20;7.10;;;;;;;7.08;82.21;96152.13;1032132;28;20087;-50
2021/04/25 00:33:46;;;;;;;12.57;7.35;;;;;;;7.07;81.66;96153.03;1027958;28;20328;-50
2021/04/25 00:34:17;;;;;;;13.85;7.70;;;;;;;7.06;82.07;96155.72;1024170;29;20119;-51
2021/04/25 00:34:47;;;;;;;11.98;7.93;;;;;;;7.07;81.58;96147.84;1032000;28;20033;-50
2021/04/25 00:35:18;;;;;;;11.75;7.07;;;;;;;7.07;81.58;96147.84;1028193;28;20033;-50
2021/04/25 00:35:49;;;;;;;14.15;7.82;;;;;;;7.08;81.21;96146.09;1032199;28;20422;-50
2021/04/25 00:36:20;;;;;;;14.77;7.95;;;;;;;7.06;81.15;96142.69;1028854;28;20297;-49
2021/04/25 00:36:51;;;;;;;11.45;6.72;;;;;;;7.08;81.31;96146.94;1028033;28;20031;-49
2021/04/25 00:37:22;;;;;;;13.32;6.85;;;;;;;7.05;81.28;96141.03;1028157;28;20031;-50
2021/04/25 00:37:52;;;;;;;11.40;7.13;;;;;;;7.11;81.09;96143.31;1032165;28;20408;-50
2021/04/25 00:38:23;;;;;;;11.40;7.30;;;;;;;7.15;80.91;96144.81;1028060;28;20085;-50
2021/04/25 00:38:54;;;;;;;15.55;7.65;;;;;;;7.13;81.02;96144.94;1024177;29;20030;-50
2021/04/25 00:39:25;;;;;;;13.50;7.78;;;;;;;7.15;80.61;96150.03;1028076;28;20049;-51
2021/04/25 00:39:56;;;;;;;12.57;7.03;;;;;;;7.12;80.84;96145.84;1032175;28;20089;-50
2021/04/25 00:40:27;;;;;;;11.27;7.05;;;;;;;7.11;80.72;96144.13;1032127;28;20014;-50
2021/04/25 00:40:57;;;;;;;13.60;8.13;;;;;;;7.09;81.03;96140.78;1036247;28;20026;-49
2021/04/25 00:41:28;;;;;;;11.65;6.65;;;;;;;7.13;80.68;96144.06;1032095;28;20019;-49
2021/04/25 00:41:59;;;;;;;11.98;7.03;;;;;;;7.11;80.33;96146.75;1024198;29;20019;-51
2021/04/25 00:42:29;;;;;;;14.52;7.43;;;;;;;7.09;81.60;96147.75;1032109;28;20523;-50
2021/04/25 00:43:00;;;;;;;12.95;6.95;;;;;;;7.08;81.40;96146.94;1028119;28;20019;-50
2021/04/25 00:43:31;;;;;;;13.32;6.47;;;;;;;7.03;82.04;96150.69;1027838;28;20029;-52
2021/04/25 00:44:03;;;;;;;11.55;7.22;;;;;;;7.06;82.19;96146.16;1027991;28;20046;-50
2021/04/25 00:44:33;;;;;;;16.35;7.70;;;;;;;7.03;82.43;96151.53;1028244;28;20047;-49
2021/04/25 00:45:07;;;;;;;13.10;7.10;;;;;;;6.98;82.33;96153.53;1032093;28;20319;-49
2021/04/25 00:45:38;;;;;;;9.30;6.85;;;;;;;6.98;82.58;96146.56;1023945;28;20031;-50
2021/04/25 00:46:08;;;;;;;12.50;6.63;;;;;;;6.95;82.00;96153.72;1032138;28;20344;-49
2021/04/25 00:46:39;;;;;;;13.48;6.97;;;;;;;6.93;82.49;96152.94;1028175;28;20022;-51
2021/04/25 00:47:10;;;;;;;16.30;7.70;;;;;;;6.96;82.78;96150.16;1032130;28;20117;-50
2021/04/25 00:47:43;;;;;;;11.40;6.68;;;;;;;7.01;81.46;96153.38;1027990;28;20061;-50
2021/04/25 00:48:13;;;;;;;15.68;8.32;;;;;;;7.05;81.63;96149.69;1024054;29;20361;-51
2021/04/25 00:48:44;;;;;;;13.20;7.10;;;;;;;7.03;81.45;96151.53;1024002;28;20271;-49
2021/04/25 00:49:15;;;;;;;12.27;7.10;;;;;;;7.04;81.44;96150.63;1024140;28;20035;-50
2021/04/25 00:49:46;;;;;;;12.35;7.13;;;;;;;7.04;81.77;96150.63;1027974;28;20392;-49
2021/04/25 00:50:20;;;;;;;12.35;6.78;;;;;;;7.03;81.89;96151.53;1028213;28;20019;-49
2021/04/25 00:50:51;;;;;;;12.38;7.00;;;;;;;7.00;81.60;96152.53;1028110;28;20313;-49
2021/04/25 00:51:23;;;;;;;11.02;6.82;;;;;;;7.03;81.74;96154.13;1032122;28;20273;-49
2021/04/25 00:51:54;;;;;;;14.63;6.82;;;;;;;7.04;82.04;96150.63;1032052;28;20476;-51
2021/04/25 00:52:25;;;;;;;12.25;6.78;;;;;;;7.02;82.10;96139.44;1024164;29;20496;-48
2021/04/25 00:52:56;;;;;;;13.13;7.78;;;;;;;7.02;82.17;96149.88;1032070;28;20270;-49
2021/04/25 00:53:27;;;;;;;15.02;7.65;;;;;;;7.04;82.41;96147.16;1032101;28;20292;-48
2021/04/25 00:54:00;;;;;;;12.63;6.82;;;;;;;7.04;82.00;96150.63;1023979;28;20031;-50
2021/04/25 00:54:31;;;;;;;10.70;6.90;;;;;;;6.99;82.14;96143.03;1024280;29;20034;-49
2021/04/25 00:55:02;;;;;;;12.30;7.18;;;;;;;6.99;82.04;96148.25;1024638;29;20298;-50
2021/04/25 00:55:33;;;;;;;12.57;6.68;;;;;;;7.00;81.89;96146.47;1024956;29;20026;-50
2021/04/25 00:56:04;;;;;;;10.02;5.97;;;;;;;6.99;81.92;96150.00;1028424;28;20262;-51
2021/04/25 00:56:35;;;;;;;12.25;6.68;;;;;;;7.00;81.99;96155.16;1028459;28;20030;-49
2021/04/25 00:57:06;;;;;;;11.10;6.88;;;;;;;7.01;81.89;96148.16;1024278;28;20775;-52
2021/04/25 00:57:37;;;;;;;15.52;7.30;;;;;;;7.00;82.12;96152.53;1028112;28;20035;-50
2021/04/25 00:58:08;;;;;;;12.65;7.15;;;;;;;6.96;82.52;96151.03;1027893;28;20255;-51
2021/04/25 00:58:39;;;;;;;12.80;6.40;;;;;;;6.95;82.37;96149.34;1028067;28;20081;-50
2021/04/25 00:59:09;;;;;;;13.02;6.60;;;;;;;6.94;82.35;96147.63;1028011;28;20616;-51
2021/04/25 00:59:41;;;;;;;13.57;6.20;;;;;;;6.96;82.64;96153.63;1024056;29;20281;-50
2021/04/25 01:00:13;;;;;;;13.30;7.00;;;;;;;6.94;82.49;96155.44;1027750;28;20425;-52
2021/04/25 01:00:44;;;;;;;12.27;6.70;;;;;;;6.91;82.68;96152.19;1028065;28;20258;-51
2021/04/25 01:01:16;;;;;;;10.45;6.70;;;;;;;6.88;82.89;96152.34;1024011;29;20252;-51
2021/04/25 01:01:47;;;;;;;14.18;7.35;;;;;;;6.87;82.87;96148.03;1027958;28;20266;-47
2021/04/25 01:02:18;;;;;;;12.27;6.50;;;;;;;6.88;82.97;96144.53;1027913;28;20266;-51
2021/04/25 01:02:49;;;;;;;11.90;6.45;;;;;;;6.94;82.96;96142.44;1028112;28;20015;-48
2021/04/25 01:03:23;;;;;;;12.65;6.82;;;;;;;6.97;83.16;96151.88;1027941;28;20386;-49
2021/04/25 01:03:54;;;;;;;13.77;7.28;;;;;;;6.92;83.14;96136.47;1023828;29;20019;-50
2021/04/25 01:04:25;;;;;;;9.98;6.80;;;;;;;6.99;82.89;96148.25;1028062;28;20738;-50
2021/04/25 01:04:55;;;;;;;10.45;7.20;;;;;;;7.00;82.90;96152.53;1028102;28;20035;-50
2021/04/25 01:05:26;;;;;;;14.20;6.65;;;;;;;6.99;83.13;96150.84;1032046;28;20487;-51
2021/04/25 01:05:57;;;;;;;11.82;6.22;;;;;;;6.99;83.31;96150.00;1028041;28;20030;-51
2021/04/25 01:06:28;;;;;;;10.75;6.63;;;;;;;7.01;83.41;96154.22;1023944;28;20266;-51
2021/04/25 01:07:01;;;;;;;14.75;6.97;;;;;;;7.04;83.55;96150.63;1024081;28;20062;-50
2021/04/25 01:07:31;;;;;;;11.95;6.57;;;;;;;7.06;83.35;96147.91;1028088;28;20042;-50
2021/04/25 01:08:03;;;;;;;15.55;7.28;;;;;;;6.97;83.47;96142.28;1032151;28;20262;-53
2021/04/25 01:08:34;;;;;;;13.18;6.88;;;;;;;7.01;83.51;96155.97;1023970;28;20054;-50
2021/04/25 01:09:05;;;;;;;10.65;6.88;;;;;;;6.99;84.08;96147.41;1032058;28;20651;-51
2021/04/25 01:09:36;;;;;;;13.93;6.97;;;;;;;6.95;83.78;96144.13;1032019;28;20074;-50
2021/04/25 01:10:08;;;;;;;13.23;6.50;;;;;;;6.92;84.12;96144.28;1027990;28;20266;-51
2021/04/25 01:10:39;;;;;;;10.93;7.43;;;;;;;6.91;84.27;96147.81;1032004;28;20411;-49
2021/04/25 01:11:10;;;;;;;14.27;7.53;;;;;;;6.92;84.33;96151.25;1027734;28;20285;-49
2021/04/25 01:11:41;;;;;;;16.58;7.22;;;;;;;6.90;84.59;96153.09;1028034;28;20544;-51
2021/04/25 01:12:12;;;;;;;12.93;6.47;;;;;;;6.86;85.21;96155.03;1028005;28;20081;-51
2021/04/25 01:12:44;;;;;;;13.55;6.90;;;;;;;6.81;85.63;96147.47;1023839;29;20261;-50
2021/04/25 01:13:15;;;;;;;10.98;6.53;;;;;;;6.83;85.58;96147.34;1027997;28;20409;-50
2021/04/25 01:13:50;;;;;;;15.75;7.03;;;;;;;6.79;86.07;96153.66;1023849;29;20275;-49
2021/04/25 01:14:21;;;;;;;14.80;7.40;;;;;;;6.78;86.50;96146.78;1031973;28;20797;-50
2021/04/25 01:14:53;;;;;;;10.85;6.68;;;;;;;6.81;86.31;96152.69;1027945;28;20313;-48
2021/04/25 01:15:23;;;;;;;12.32;6.82;;;;;;;6.83;86.45;96149.97;1024082;28;20257;-50
2021/04/25 01:15:54;;;;;;;13.68;6.60;;;;;;;6.82;86.61;96149.13;1019968;29;20290;-49
2021/04/25 01:16:27;;;;;;;14.55;6.93;;;;;;;6.78;86.91;96147.63;1020003;29;20035;-51
2021/04/25 01:16:58;;;;;;;10.02;6.25;;;;;;;6.76;87.36;96153.84;1020003;29;20048;-52
2021/04/25 01:17:29;;;;;;;14.98;6.70;;;;;;;6.79;87.70;96151.06;1020113;29;20762;-49
2021/04/25 01:18:00;;;;;;;13.82;6.97;;;;;;;6.79;87.31;96157.13;1024009;28;20023;-51
2021/04/25 01:18:31;;;;;;;14.90;7.05;;;;;;;6.80;87.12;96157.97;1023892;29;20043;-50
2021/04/25 01:19:02;;;;;;;11.23;6.50;;;;;;;6.74;88.25;96150.47;1024044;28;20038;-50
2021/04/25 01:19:33;;;;;;;12.88;6.35;;;;;;;6.74;87.67;96153.06;1027979;28;20810;-49
2021/04/25 01:20:05;;;;;;;11.88;6.80;;;;;;;6.76;88.31;96149.47;1027995;28;20242;-50
2021/04/25 01:20:35;;;;;;;12.27;7.22;;;;;;;6.76;87.98;96152.06;1027868;28;20022;-49
2021/04/25 01:21:06;;;;;;;11.93;6.90;;;;;;;6.73;88.02;96167.00;1031976;28;20253;-49
2021/04/25 01:21:37;;;;;;;14.20;7.32;;;;;;;6.73;88.59;96160.03;1027975;28;20018;-51
2021/04/25 01:22:08;;;;;;;15.85;7.15;;;;;;;6.72;88.91;96155.75;1024051;29;20023;-49
2021/04/25 01:22:39;;;;;;;14.65;6.90;;;;;;;6.71;88.66;96156.66;1027998;28;20082;-51
2021/04/25 01:23:09;;;;;;;13.43;6.63;;;;;;;6.70;88.85;96157.59;1027825;28;20464;-50
2021/04/25 01:23:40;;;;;;;12.85;7.00;;;;;;;6.67;89.01;96157.75;1023816;29;20023;-49
2021/04/25 01:24:12;;;;;;;12.38;6.97;;;;;;;6.60;89.40;96151.16;1027876;28;20027;-50
2021/04/25 01:24:42;;;;;;;12.30;6.25;;;;;;;6.61;89.13;96160.66;1024008;29;20266;-49
2021/04/25 01:25:15;;;;;;;10.52;6.32;;;;;;;6.58;90.22;96156.44;1019878;28;20255;-50
2021/04/25 01:25:46;;;;;;;13.52;7.53;;;;;;;6.64;89.93;96154.44;1019999;29;20024;-50
2021/04/25 01:26:17;;;;;;;12.70;6.93;;;;;;;6.67;89.26;96160.34;1024075;29;20291;-50
2021/04/25 01:26:48;;;;;;;14.23;7.28;;;;;;;6.69;89.35;96161.09;1023960;29;20424;-51
2021/04/25 01:27:19;;;;;;;10.52;6.50;;;;;;;6.67;89.42;96160.34;1023835;29;20046;-50
2021/04/25 01:27:50;;;;;;;12.02;7.18;;;;;;;6.65;89.47;96156.97;1027521;28;20484;-48
2021/04/25 01:28:21;;;;;;;10.00;6.60;;;;;;;6.63;90.07;96153.63;1027853;28;20262;-48
2021/04/25 01:28:52;;;;;;;13.50;6.63;;;;;;;6.66;90.12;96156.03;1027956;28;20015;-49
2021/04/25 01:29:23;;;;;;;14.25;7.28;;;;;;;6.61;90.73;96153.69;1031904;28;20696;-53
2021/04/25 01:29:54;;;;;;;13.10;7.25;;;;;;;6.61;90.26;96158.06;1031958;28;20028;-49
2021/04/25 01:30:28;;;;;;;11.23;7.18;;;;;;;6.61;90.47;96155.47;1020077;29;20019;-51
2021/04/25 01:30:59;;;;;;;11.57;7.13;;;;;;;6.61;90.57;96158.06;1027919;28;20361;-50
2021/04/25 01:31:30;;;;;;;13.20;6.50;;;;;;;6.61;91.00;96156.28;1027919;28;20644;-49
2021/04/25 01:32:01;;;;;;;9.55;6.05;;;;;;;6.59;90.63;96152.09;1027944;28;20296;-49
2021/04/25 01:32:31;;;;;;;12.93;6.60;;;;;;;6.58;90.96;96156.44;1028085;28;20026;-50
2021/04/25 01:33:02;;;;;;;12.75;7.63;;;;;;;6.64;90.60;96154.44;1023960;28;20121;-49
2021/04/25 01:33:34;;;;;;;12.10;6.72;;;;;;;6.67;89.99;96156.91;1023702;28;20051;-51
2021/04/25 01:34:05;;;;;;;11.45;6.78;;;;;;;6.71;89.93;96153.22;1023926;28;20026;-50
2021/04/25 01:34:36;;;;;;;11.95;6.25;;;;;;;6.65;90.47;96153.53;1019952;28;20404;-49
2021/04/25 01:35:09;;;;;;;15.15;7.53;;;;;;;6.63;91.56;96158.00;1027914;28;20325;-50
2021/04/25 01:35:40;;;;;;;12.38;7.05;;;;;;;6.62;91.26;96159.72;1023857;28;20023;-51
2021/04/25 01:36:12;;;;;;;13.13;7.10;;;;;;;6.61;91.56;96153.69;1020022;29;20347;-50
2021/04/25 01:36:43;;;;;;;12.65;6.82;;;;;;;6.60;91.33;96158.97;1023968;29;20258;-49
2021/04/25 01:37:15;;;;;;;11.73;6.88;;;;;;;6.57;91.18;96162.59;1024041;29;20247;-51
2021/04/25 01:37:48;;;;;;;11.82;6.47;;;;;;;6.60;91.21;96161.56;1023850;29;20275;-51
2021/04/25 01:38:19;;;;;;;10.65;6.40;;;;;;;6.57;91.97;96159.97;1027909;28;20341;-48
2021/04/25 01:38:50;;;;;;;13.60;7.53;;;;;;;6.56;91.56;96157.44;1024000;29;20251;-51
2021/04/25 01:39:21;;;;;;;15.48;6.93;;;;;;;6.52;91.63;96154.16;1031874;28;20261;-50
2021/04/25 01:39:52;;;;;;;12.63;6.80;;;;;;;6.49;92.16;96156.91;1023960;28;20024;-51
2021/04/25 01:40:26;;;;;;;13.75;7.03;;;;;;;6.48;92.52;96159.63;1024006;29;20468;-50
2021/04/25 01:40:56;;;;;;;11.85;6.80;;;;;;;6.47;92.78;96157.91;1027951;28;20033;-47
2021/04/25 01:41:27;;;;;;;11.73;6.53;;;;;;;6.47;92.62;96158.75;1031914;28;20257;-50
2021/04/25 01:41:58;;;;;;;9.10;6.22;;;;;;;6.47;92.93;96155.31;1027796;28;20113;-50
2021/04/25 01:42:29;;;;;;;9.55;6.47;;;;;;;6.46;92.52;96162.28;1023896;29;20497;-49
2021/04/25 01:43:00;;;;;;;12.43;6.38;;;;;;;6.47;92.52;96160.53;1019878;28;20268;-50
2021/04/25 01:43:31;;;;;;;10.25;6.55;;;;;;;6.46;92.52;96161.41;1035734;28;20080;-51
2021/04/25 01:44:02;;;;;;;13.93;6.72;;;;;;;6.45;92.59;96159.75;1027766;28;20381;-50
2021/04/25 01:44:33;;;;;;;12.82;7.75;;;;;;;6.40;92.75;96162.56;1023924;29;20023;-49
2021/04/25 01:45:05;;;;;;;13.02;6.53;;;;;;;6.40;92.72;96158.22;1027846;28;20254;-49
2021/04/25 01:45:36;;;;;;;10.90;6.10;;;;;;;6.45;92.94;96162.34;1023861;29;20023;-51
2021/04/25 01:46:07;;;;;;;14.30;6.43;;;;;;;6.45;92.52;96158.00;1023877;28;20247;-50
2021/04/25 01:46:38;;;;;;;15.07;6.95;;;;;;;6.45;92.61;96159.75;1027873;28;20022;-50
2021/04/25 01:47:09;;;;;;;13.75;6.28;;;;;;;6.43;92.59;96158.06;1027876;28;20065;-50
2021/04/25 01:47:39;;;;;;;14.20;6.93;;;;;;;6.44;92.86;96158.91;1027742;28;20014;-49
2021/04/25 01:48:10;;;;;;;14.48;7.15;;;;;;;6.45;92.92;96152.78;1027845;28;20019;-50
2021/04/25 01:48:41;;;;;;;11.00;6.75;;;;;;;6.41;93.00;96159.91;1019952;28;20405;-50
2021/04/25 01:49:14;;;;;;;12.07;6.70;;;;;;;6.37;93.81;96154.94;1023891;29;20024;-50
2021/04/25 01:49:44;;;;;;;12.80;6.93;;;;;;;6.36;93.82;96153.25;1027900;28;20329;-50
2021/04/25 01:50:16;;;;;;;14.40;6.15;;;;;;;6.37;93.90;96157.53;1027828;28;20249;-49
2021/04/25 01:50:48;;;;;;;12.75;6.45;;;;;;;6.40;94.15;96157.38;1027939;28;20015;-50
2021/04/25 01:51:19;;;;;;;11.43;7.10;;;;;;;6.36;93.73;96155.84;1031902;28;20254;-49
2021/04/25 01:51:49;;;;;;;9.23;6.32;;;;;;;6.36;94.10;96164.53;1027805;28;20775;-49
2021/04/25 01:52:20;;;;;;;11.43;7.35;;;;;;;6.37;93.45;96158.38;1023735;29;20023;-51
2021/04/25 01:52:53;;;;;;;11.05;6.68;;;;;;;6.37;94.25;96158.38;1019884;29;20494;-51
2021/04/25 01:53:24;;;;;;;12.40;6.97;;;;;;;6.32;94.12;96165.56;1027829;28;20028;-51
2021/04/25 01:53:55;;;;;;;11.85;6.78;;;;;;;6.31;94.75;96160.47;1027646;28;20282;-51
2021/04/25 01:54:26;;;;;;;15.20;8.10;;;;;;;6.28;94.23;96160.59;1031858;28;20045;-50
2021/04/25 01:54:57;;;;;;;14.27;7.25;;;;;;;6.29;94.45;96159.66;1027810;28;20288;-49
2021/04/25 01:55:29;;;;;;;16.67;7.28;;;;;;;6.33;94.42;96158.63;1019938;29;20079;-50
2021/04/25 01:56:01;;;;;;;13.43;6.80;;;;;;;6.33;94.13;96154.25;1019795;29;20011;-51
2021/04/25 01:56:32;;;;;;;10.85;6.93;;;;;;;6.34;93.86;96153.31;1031796;28;20259;-49
2021/04/25 01:57:04;;;;;;;13.23;7.28;;;;;;;6.31;94.19;96156.09;1019870;29;20252;-51
2021/04/25 01:57:35;;;;;;;11.88;7.40;;;;;;;6.29;94.44;96157.06;1023921;29;20258;-50
2021/04/25 01:58:07;;;;;;;11.05;6.78;;;;;;;6.28;94.29;96158.84;1031716;28;20261;-53
2021/04/25 01:58:38;;;;;;;15.43;7.22;;;;;;;6.26;94.63;96158.06;1027815;28;20892;-49
2021/04/25 01:59:09;;;;;;;14.38;6.95;;;;;;;6.22;94.93;96164.34;1023875;28;20748;-51
2021/04/25 01:59:40;;;;;;;12.52;6.57;;;;;;;6.17;95.62;96164.56;1027846;28;20266;-48
2021/04/25 02:00:14;;;;;;;12.55;7.53;;;;;;;6.19;95.76;96161.88;1023714;28;20121;-52
2021/04/25 02:00:45;;;;;;;12.82;7.05;;;;;;;6.18;95.78;96162.81;1031901;28;20030;-52
2021/04/25 02:01:16;;;;;;;12.70;7.18;;;;;;;6.20;95.33;96158.38;1023783;29;20259;-50
2021/04/25 02:01:47;;;;;;;13.77;7.50;;;;;;;6.19;95.56;96159.28;1019912;29;20622;-51
2021/04/25 02:02:18;;;;;;;12.75;7.43;;;;;;;6.22;95.31;96166.94;1019747;29;20157;-49
2021/04/25 02:02:52;;;;;;;13.40;7.38;;;;;;;6.23;95.58;96163.41;1019897;29;20094;-51
2021/04/25 02:03:24;;;;;;;13.82;6.47;;;;;;;6.23;94.91;96166.88;1027713;28;20286;-51
2021/04/25 02:03:55;;;;;;;10.50;6.65;;;;;;;6.22;94.98;96167.78;1023636;28;20259;-51
2021/04/25 02:04:26;;;;;;;16.08;6.80;;;;;;;6.20;94.96;96167.03;1019756;29;20777;-50
2021/04/25 02:04:56;;;;;;;15.45;7.78;;;;;;;6.20;95.26;96168.78;1023789;28;20118;-49
2021/04/25 02:05:28;;;;;;;11.68;7.30;;;;;;;6.15;95.15;96155.16;1019854;29;20030;-50
2021/04/25 02:05:59;;;;;;;11.98;6.55;;;;;;;6.14;95.42;96156.94;1027825;28;20260;-52
2021/04/25 02:06:30;;;;;;;11.27;6.40;;;;;;;6.20;95.10;96166.19;1023772;29;20031;-50
2021/04/25 02:07:01;;;;;;;13.18;6.20;;;;;;;6.20;95.13;96161.81;1027847;28;20285;-48
2021/04/25 02:07:32;;;;;;;12.18;6.85;;;;;;;6.17;95.14;96158.53;1027807;28;20033;-51
2021/04/25 02:08:03;;;;;;;13.35;6.82;;;;;;;6.14;95.38;96162.13;1023731;28;20093;-50
2021/04/25 02:08:34;;;;;;;10.05;6.57;;;;;;;6.14;95.81;96161.31;1023646;29;20062;-48
2021/04/25 02:09:05;;;;;;;14.80;7.00;;;;;;;6.14;96.20;96163.91;1023788;29;20289;-51
2021/04/25 02:09:36;;;;;;;15.32;7.10;;;;;;;6.13;95.87;96162.19;1031838;28;20261;-50
2021/04/25 02:10:08;;;;;;;13.07;6.72;;;;;;;6.10;95.69;96158.00;1031811;28;20768;-51
2021/04/25 02:10:39;;;;;;;10.85;6.72;;;;;;;6.13;95.89;96164.81;1027646;28;20018;-49
2021/04/25 02:11:10;;;;;;;14.82;7.15;;;;;;;6.13;95.84;96157.00;1019819;29;20294;-49
2021/04/25 02:11:41;;;;;;;12.50;6.82;;;;;;;6.11;95.65;96156.25;1035711;28;20360;-49
2021/04/25 02:12:11;;;;;;;10.63;6.65;;;;;;;6.07;95.99;96162.50;1027731;28;20408;-50
2021/04/25 02:12:42;;;;;;;17.30;7.53;;;;;;;6.08;95.73;96164.19;1027675;28;20023;-50
2021/04/25 02:13:13;;;;;;;10.20;6.68;;;;;;;6.05;96.81;96161.75;1035767;28;20061;-50
2021/04/25 02:13:44;;;;;;;13.95;7.68;;;;;;;6.03;96.14;96161.81;1027565;28;20417;-49
2021/04/25 02:14:15;;;;;;;11.52;6.63;;;;;;;6.01;96.30;96158.47;1023775;29;20270;-49
2021/04/25 02:14:46;;;;;;;15.20;6.63;;;;;;;5.98;96.67;96158.59;1031795;28;20030;-50
2021/04/25 02:15:17;;;;;;;14.25;7.15;;;;;;;5.96;97.66;96160.44;1035778;28;20507;-49
2021/04/25 02:15:48;;;;;;;12.32;7.43;;;;;;;5.94;97.84;96157.88;1027871;28;20106;-50
2021/04/25 02:16:19;;;;;;;11.57;6.85;;;;;;;5.94;97.74;96163.06;1027750;28;20278;-50
2021/04/25 02:16:50;;;;;;;14.77;7.75;;;;;;;5.92;97.57;96166.66;1027795;28;20270;-49
2021/04/25 02:17:21;;;;;;;11.50;7.50;;;;;;;5.88;98.03;96165.97;1023649;28;20027;-49
2021/04/25 02:17:52;;;;;;;12.10;6.78;;;;;;;5.91;97.91;96164.97;1031784;28;20034;-49
2021/04/25 02:18:23;;;;;;;12.45;7.63;;;;;;;5.91;98.14;96164.97;1023669;29;20071;-50
2021/04/25 02:18:54;;;;;;;14.60;7.50;;;;;;;5.91;98.08;96160.63;1027783;28;20274;-49
2021/04/25 02:19:25;;;;;;;10.85;7.00;;;;;;;5.88;97.87;96157.34;1023685;29;20667;-49
2021/04/25 02:19:56;;;;;;;13.73;7.70;;;;;;;5.90;98.35;96171.94;1023799;29;20269;-51
2021/04/25 02:20:27;;;;;;;13.07;6.65;;;;;;;5.87;98.17;96166.88;1023739;29;20258;-50
2021/04/25 02:20:59;;;;;;;12.55;6.75;;;;;;;5.85;99.05;96166.09;1019967;28;20470;-50
2021/04/25 02:21:30;;;;;;;12.60;7.55;;;;;;;5.87;98.61;96160.84;1023674;28;20775;-50
2021/04/25 02:22:01;;;;;;;11.68;7.47;;;;;;;5.90;98.53;96160.69;1023794;29;20269;-50
2021/04/25 02:22:31;;;;;;;10.75;6.88;;;;;;;5.93;97.77;96165.72;1023760;29;20110;-52
2021/04/25 02:23:02;;;;;;;15.77;7.80;;;;;;;5.96;97.96;96169.06;1023734;29;20062;-51
2021/04/25 02:23:33;;;;;;;13.18;7.88;;;;;;;5.99;98.15;96166.31;1023467;28;20110;-49
2021/04/25 02:24:04;;;;;;;16.55;8.20;;;;;;;5.95;98.01;96161.28;1023786;29;20019;-48
2021/04/25 02:24:35;;;;;;;13.50;6.93;;;;;;;5.96;98.44;96166.47;1023861;29;20521;-49
2021/04/25 02:25:08;;;;;;;12.30;7.20;;;;;;;5.97;98.41;96165.56;1023795;28;20255;-51
2021/04/25 02:25:38;;;;;;;18.98;7.22;;;;;;;5.95;98.44;96163.91;1023595;29;20027;-51
2021/04/25 02:26:09;;;;;;;11.18;7.35;;;;;;;5.94;98.45;96163.06;1027699;28;20988;-49
2021/04/25 02:26:40;;;;;;;12.48;7.40;;;;;;;5.96;98.13;96163.03;1027745;28;20066;-52